Young America, Minnesota
Current Conditions -  °F | °C
As of 6:34 AM on Monday 22 Dec 2014 (Local Time) from KGYL Reporting Station
Haze Haze  
Wind Chill: 31°   Ceiling: 500
Heat Index: 38°   Visibility: 4mi
Dew Point: 38°   Wind: 13mph
Humidity: 99%   Direction: 140°SE
Pressure: 29.6"   Gusts: NA
Location:  44.78°N, 93.92°W
Report Text: KGYL 221234Z AUTO 14011KT 4SM BR OVC005 04/04 A2960 RMK AO2 T00360035
Loading
Personal Weather Stations






























Interactive Weather Map New forecast layout! Learn more

10-Day Weather Forecast

Advertisements
Track Severe Weather on mobile